Ana Sayfa
METAR-TAF:

METAR-TAF

Havaalanları :

Rodos Diagoras Uluslararası Havalimanı

Rodos, Yunanistan

Enlem: 36-24N, Boylam: 028-05E, yükseklik: 4 m

Güncel hava durumu gözlemi

Rapor saat 20:20 UTC de 12 dakika önce yapıldı.
Rüzgar batı/güneybatıdan 5 kt
Sıcaklık 24°C
Nem 57%
Basınç 1013 hPa
Görüş mesafesi 10 km veya daha fazla
1500 m altında bulut yok ve kümülonimbus yok

METAR: LGRP 232020Z 25005KT CAVOK 24/15 Q1013 NOSIG

Saat: 23:32 (20:32 UTC)

Tahmin

Rapor saat 17:00 UTC de 3 saat ve 32 dakika önce yapıldı.
Ayın 23'si saat 18 UTC'den ayın 24'si saat 18 UTC'ye kadar geçerli Tahmin
Rüzgar batı/güneybatıdan 16 kt
Görüş mesafesi 10 km veya daha fazla
2000 ft yükseklikte az bulutlu

TAF: LGRP 231700Z 2318/2418 24016KT 9999 FEW020

4.000'den fazla havaalanı için hava durumu gözlemleri ve tahminleri (METAR ve TAF raporları).

Kullanılabilir istasyonlar harita üzerinde sarı ve kırmızı noktalarla gösterilir.

İstasyonun adını görmek için fareyi noktanın üzerinde gezdirin.

Sonrasında hava gözlem ve tahminlerini görmek için tıklayın.

Haritayı değiştirmek için: yaklaştırmak için siyah artı işaretli yeşil düğmeye ve uzaklaştırmak için de eksi işaretli düğmeye hızla tıklayın; bitişik haritalar için yeşil okları kullanın.


METAR-TAF: